sensor_id;sensor_type;location;lat;lon;timestamp;P1;durP1;ratioP1;P2;durP2;ratioP2
14817;SDS011;7500;57.698;11.986;2024-01-15T00:00:57;6.63;;;3.00;;
14817;SDS011;7500;57.698;11.986;2024-01-15T00:03:23;4.83;;;2.90;;
14817;SDS011;7500;57.698;11.986;2024-01-15T00:05:51;4.33;;;3.00;;
14817;SDS011;7500;57.698;11.986;2024-01-15T00:08:18;7.50;;;3.30;;
14817;SDS011;7500;57.698;11.986;2024-01-15T00:10:44;4.97;;;2.97;;
14817;SDS011;7500;57.698;11.986;2024-01-15T00:13:11;7.03;;;3.20;;
14817;SDS011;7500;57.698;11.986;2024-01-15T00:15:37;6.47;;;3.40;;
14817;SDS011;7500;57.698;11.986;2024-01-15T00:18:04;5.07;;;2.90;;
14817;SDS011;7500;57.698;11.986;2024-01-15T00:20:31;6.70;;;2.90;;
14817;SDS011;7500;57.698;11.986;2024-01-15T00:22:59;6.03;;;3.03;;
14817;SDS011;7500;57.698;11.986;2024-01-15T00:25:26;5.53;;;3.10;;
14817;SDS011;7500;57.698;11.986;2024-01-15T00:27:52;10.00;;;3.17;;
14817;SDS011;7500;57.698;11.986;2024-01-15T00:30:19;5.70;;;2.90;;
14817;SDS011;7500;57.698;11.986;2024-01-15T00:32:45;6.20;;;3.43;;
14817;SDS011;7500;57.698;11.986;2024-01-15T00:35:12;6.37;;;3.33;;
14817;SDS011;7500;57.698;11.986;2024-01-15T00:37:39;6.97;;;3.30;;
14817;SDS011;7500;57.698;11.986;2024-01-15T00:40:07;7.90;;;3.63;;
14817;SDS011;7500;57.698;11.986;2024-01-15T00:42:34;7.90;;;3.87;;
14817;SDS011;7500;57.698;11.986;2024-01-15T00:45:01;6.37;;;3.40;;
14817;SDS011;7500;57.698;11.986;2024-01-15T00:47:27;5.60;;;3.07;;
14817;SDS011;7500;57.698;11.986;2024-01-15T00:49:54;6.10;;;3.33;;
14817;SDS011;7500;57.698;11.986;2024-01-15T00:52:21;3.87;;;2.77;;
14817;SDS011;7500;57.698;11.986;2024-01-15T00:54:47;6.40;;;2.83;;
14817;SDS011;7500;57.698;11.986;2024-01-15T00:57:15;6.03;;;2.93;;
14817;SDS011;7500;57.698;11.986;2024-01-15T00:59:44;4.43;;;3.00;;
14817;SDS011;7500;57.698;11.986;2024-01-15T01:02:10;7.43;;;3.50;;
14817;SDS011;7500;57.698;11.986;2024-01-15T01:04:37;6.73;;;3.83;;
14817;SDS011;7500;57.698;11.986;2024-01-15T01:07:04;7.70;;;4.00;;
14817;SDS011;7500;57.698;11.986;2024-01-15T01:09:30;6.90;;;3.70;;
14817;SDS011;7500;57.698;11.986;2024-01-15T01:11:57;7.87;;;3.47;;
14817;SDS011;7500;57.698;11.986;2024-01-15T01:14:25;8.30;;;4.17;;
14817;SDS011;7500;57.698;11.986;2024-01-15T01:16:51;7.37;;;3.50;;
14817;SDS011;7500;57.698;11.986;2024-01-15T01:19:18;6.03;;;3.73;;
14817;SDS011;7500;57.698;11.986;2024-01-15T01:21:44;7.20;;;3.83;;
14817;SDS011;7500;57.698;11.986;2024-01-15T01:24:11;8.87;;;3.80;;
14817;SDS011;7500;57.698;11.986;2024-01-15T01:26:38;6.53;;;4.33;;
14817;SDS011;7500;57.698;11.986;2024-01-15T01:29:04;9.67;;;3.87;;
14817;SDS011;7500;57.698;11.986;2024-01-15T01:31:32;6.60;;;3.70;;
14817;SDS011;7500;57.698;11.986;2024-01-15T01:33:59;6.93;;;3.53;;
14817;SDS011;7500;57.698;11.986;2024-01-15T01:36:25;7.43;;;3.57;;
14817;SDS011;7500;57.698;11.986;2024-01-15T01:38:52;6.70;;;3.93;;
14817;SDS011;7500;57.698;11.986;2024-01-15T01:41:18;5.87;;;3.10;;
14817;SDS011;7500;57.698;11.986;2024-01-15T01:43:45;6.67;;;3.27;;
14817;SDS011;7500;57.698;11.986;2024-01-15T01:46:11;5.53;;;3.07;;
14817;SDS011;7500;57.698;11.986;2024-01-15T01:48:39;4.93;;;3.40;;
14817;SDS011;7500;57.698;11.986;2024-01-15T01:51:06;8.10;;;3.50;;
14817;SDS011;7500;57.698;11.986;2024-01-15T01:53:33;6.40;;;3.10;;
14817;SDS011;7500;57.698;11.986;2024-01-15T01:56:01;5.77;;;3.40;;
14817;SDS011;7500;57.698;11.986;2024-01-15T01:58:28;5.60;;;3.23;;
14817;SDS011;7500;57.698;11.986;2024-01-15T02:00:55;4.53;;;2.40;;
14817;SDS011;7500;57.698;11.986;2024-01-15T02:03:22;4.87;;;2.83;;
14817;SDS011;7500;57.698;11.986;2024-01-15T02:05:50;2.17;;;1.47;;
14817;SDS011;7500;57.698;11.986;2024-01-15T02:08:17;1.97;;;0.90;;
14817;SDS011;7500;57.698;11.986;2024-01-15T02:10:51;0.20;;;0.20;;
14817;SDS011;7500;57.698;11.986;2024-01-15T02:13:17;0.67;;;0.30;;
14817;SDS011;7500;57.698;11.986;2024-01-15T02:15:44;0.40;;;0.20;;
14817;SDS011;7500;57.698;11.986;2024-01-15T02:18:11;0.30;;;0.17;;
14817;SDS011;7500;57.698;11.986;2024-01-15T02:20:37;0.20;;;0.20;;
14817;SDS011;7500;57.698;11.986;2024-01-15T02:23:07;0.43;;;0.20;;
14817;SDS011;7500;57.698;11.986;2024-01-15T02:25:41;0.20;;;0.20;;
14817;SDS011;7500;57.698;11.986;2024-01-15T02:28:09;1.30;;;0.10;;
14817;SDS011;7500;57.698;11.986;2024-01-15T02:30:37;0.20;;;0.20;;
14817;SDS011;7500;57.698;11.986;2024-01-15T02:33:04;0.20;;;0.20;;
14817;SDS011;7500;57.698;11.986;2024-01-15T02:35:30;0.10;;;0.07;;
14817;SDS011;7500;57.698;11.986;2024-01-15T02:37:57;0.40;;;0.20;;
14817;SDS011;7500;57.698;11.986;2024-01-15T02:40:25;1.47;;;0.30;;
14817;SDS011;7500;57.698;11.986;2024-01-15T02:42:51;0.30;;;0.20;;
14817;SDS011;7500;57.698;11.986;2024-01-15T02:45:18;0.47;;;0.27;;
14817;SDS011;7500;57.698;11.986;2024-01-15T02:47:44;0.20;;;0.10;;
14817;SDS011;7500;57.698;11.986;2024-01-15T02:50:11;0.30;;;0.30;;
14817;SDS011;7500;57.698;11.986;2024-01-15T02:52:37;0.17;;;0.17;;
14817;SDS011;7500;57.698;11.986;2024-01-15T02:55:04;0.30;;;0.30;;
14817;SDS011;7500;57.698;11.986;2024-01-15T02:57:33;0.27;;;0.20;;
14817;SDS011;7500;57.698;11.986;2024-01-15T03:00:10;0.37;;;0.30;;
14817;SDS011;7500;57.698;11.986;2024-01-15T03:02:36;0.57;;;0.30;;
14817;SDS011;7500;57.698;11.986;2024-01-15T03:05:04;0.20;;;0.13;;
14817;SDS011;7500;57.698;11.986;2024-01-15T03:07:31;1.27;;;0.17;;
14817;SDS011;7500;57.698;11.986;2024-01-15T03:09:58;1.07;;;0.43;;
14817;SDS011;7500;57.698;11.986;2024-01-15T03:12:24;0.20;;;0.10;;
14817;SDS011;7500;57.698;11.986;2024-01-15T03:14:52;0.63;;;0.30;;
14817;SDS011;7500;57.698;11.986;2024-01-15T03:17:19;0.20;;;0.10;;
14817;SDS011;7500;57.698;11.986;2024-01-15T03:19:45;0.37;;;0.30;;
14817;SDS011;7500;57.698;11.986;2024-01-15T03:22:18;0.17;;;0.10;;
14817;SDS011;7500;57.698;11.986;2024-01-15T03:24:45;0.73;;;0.10;;
14817;SDS011;7500;57.698;11.986;2024-01-15T03:27:11;1.50;;;0.30;;
14817;SDS011;7500;57.698;11.986;2024-01-15T03:29:39;0.17;;;0.17;;
14817;SDS011;7500;57.698;11.986;2024-01-15T03:32:07;0.27;;;0.27;;
14817;SDS011;7500;57.698;11.986;2024-01-15T03:34:33;0.17;;;0.17;;
14817;SDS011;7500;57.698;11.986;2024-01-15T03:37:00;2.20;;;0.20;;
14817;SDS011;7500;57.698;11.986;2024-01-15T03:39:26;0.30;;;0.30;;
14817;SDS011;7500;57.698;11.986;2024-01-15T03:41:53;2.20;;;0.20;;
14817;SDS011;7500;57.698;11.986;2024-01-15T03:44:19;0.80;;;0.20;;
14817;SDS011;7500;57.698;11.986;2024-01-15T03:46:46;0.97;;;0.43;;
14817;SDS011;7500;57.698;11.986;2024-01-15T03:49:14;0.30;;;0.30;;
14817;SDS011;7500;57.698;11.986;2024-01-15T03:51:40;0.40;;;0.30;;
14817;SDS011;7500;57.698;11.986;2024-01-15T03:54:07;1.20;;;0.37;;
14817;SDS011;7500;57.698;11.986;2024-01-15T03:56:34;0.73;;;0.30;;
14817;SDS011;7500;57.698;11.986;2024-01-15T03:59:00;0.33;;;0.30;;
14817;SDS011;7500;57.698;11.986;2024-01-15T04:01:27;1.27;;;0.10;;
14817;SDS011;7500;57.698;11.986;2024-01-15T04:03:54;0.20;;;0.20;;
14817;SDS011;7500;57.698;11.986;2024-01-15T04:06:22;2.93;;;0.50;;
14817;SDS011;7500;57.698;11.986;2024-01-15T04:08:48;1.33;;;0.40;;
14817;SDS011;7500;57.698;11.986;2024-01-15T04:11:15;0.20;;;0.13;;
14817;SDS011;7500;57.698;11.986;2024-01-15T04:13:42;0.90;;;0.40;;
14817;SDS011;7500;57.698;11.986;2024-01-15T04:16:08;1.27;;;0.40;;
14817;SDS011;7500;57.698;11.986;2024-01-15T04:18:35;0.30;;;0.10;;
14817;SDS011;7500;57.698;11.986;2024-01-15T04:21:03;0.20;;;0.20;;
14817;SDS011;7500;57.698;11.986;2024-01-15T04:23:38;0.70;;;0.30;;
14817;SDS011;7500;57.698;11.986;2024-01-15T04:26:05;0.83;;;0.40;;
14817;SDS011;7500;57.698;11.986;2024-01-15T04:28:31;0.50;;;0.20;;
14817;SDS011;7500;57.698;11.986;2024-01-15T04:30:58;0.10;;;0.10;;
14817;SDS011;7500;57.698;11.986;2024-01-15T04:33:24;0.30;;;0.20;;
14817;SDS011;7500;57.698;11.986;2024-01-15T04:35:51;0.93;;;0.40;;
14817;SDS011;7500;57.698;11.986;2024-01-15T04:38:18;0.90;;;0.33;;
14817;SDS011;7500;57.698;11.986;2024-01-15T04:40:46;1.63;;;0.30;;
14817;SDS011;7500;57.698;11.986;2024-01-15T04:43:12;0.20;;;0.07;;
14817;SDS011;7500;57.698;11.986;2024-01-15T04:45:39;0.50;;;0.20;;
14817;SDS011;7500;57.698;11.986;2024-01-15T04:48:05;0.20;;;0.20;;
14817;SDS011;7500;57.698;11.986;2024-01-15T04:50:32;0.30;;;0.30;;
14817;SDS011;7500;57.698;11.986;2024-01-15T04:52:59;1.37;;;0.30;;
14817;SDS011;7500;57.698;11.986;2024-01-15T04:55:25;0.40;;;0.10;;
14817;SDS011;7500;57.698;11.986;2024-01-15T04:57:53;1.20;;;0.20;;
14817;SDS011;7500;57.698;11.986;2024-01-15T05:00:20;0.13;;;0.13;;
14817;SDS011;7500;57.698;11.986;2024-01-15T05:02:46;0.33;;;0.30;;
14817;SDS011;7500;57.698;11.986;2024-01-15T05:05:13;2.20;;;0.30;;
14817;SDS011;7500;57.698;11.986;2024-01-15T05:07:39;0.47;;;0.30;;
14817;SDS011;7500;57.698;11.986;2024-01-15T05:10:06;0.50;;;0.20;;
14817;SDS011;7500;57.698;11.986;2024-01-15T05:12:33;0.40;;;0.30;;
14817;SDS011;7500;57.698;11.986;2024-01-15T05:15:01;0.97;;;0.13;;
14817;SDS011;7500;57.698;11.986;2024-01-15T05:17:28;0.50;;;0.30;;
14817;SDS011;7500;57.698;11.986;2024-01-15T05:19:55;0.40;;;0.33;;
14817;SDS011;7500;57.698;11.986;2024-01-15T05:22:21;0.30;;;0.10;;
14817;SDS011;7500;57.698;11.986;2024-01-15T05:24:49;1.57;;;0.47;;
14817;SDS011;7500;57.698;11.986;2024-01-15T05:27:16;1.53;;;0.37;;
14817;SDS011;7500;57.698;11.986;2024-01-15T05:29:43;0.20;;;0.20;;
14817;SDS011;7500;57.698;11.986;2024-01-15T05:32:11;0.70;;;0.20;;
14817;SDS011;7500;57.698;11.986;2024-01-15T05:34:37;0.30;;;0.27;;
14817;SDS011;7500;57.698;11.986;2024-01-15T05:37:04;0.30;;;0.30;;
14817;SDS011;7500;57.698;11.986;2024-01-15T05:39:30;0.37;;;0.23;;
14817;SDS011;7500;57.698;11.986;2024-01-15T05:41:58;0.73;;;0.20;;
14817;SDS011;7500;57.698;11.986;2024-01-15T05:44:24;1.80;;;0.30;;
14817;SDS011;7500;57.698;11.986;2024-01-15T05:46:51;1.43;;;0.40;;
14817;SDS011;7500;57.698;11.986;2024-01-15T05:49:19;0.73;;;0.20;;
14817;SDS011;7500;57.698;11.986;2024-01-15T05:51:45;0.93;;;0.40;;
14817;SDS011;7500;57.698;11.986;2024-01-15T05:54:12;1.30;;;0.50;;
14817;SDS011;7500;57.698;11.986;2024-01-15T05:56:39;0.93;;;0.27;;
14817;SDS011;7500;57.698;11.986;2024-01-15T05:59:05;2.43;;;0.30;;
14817;SDS011;7500;57.698;11.986;2024-01-15T06:01:32;0.67;;;0.30;;
14817;SDS011;7500;57.698;11.986;2024-01-15T06:03:58;0.37;;;0.20;;
14817;SDS011;7500;57.698;11.986;2024-01-15T06:06:26;0.50;;;0.30;;
14817;SDS011;7500;57.698;11.986;2024-01-15T06:08:53;1.40;;;0.40;;
14817;SDS011;7500;57.698;11.986;2024-01-15T06:11:20;0.20;;;0.17;;
14817;SDS011;7500;57.698;11.986;2024-01-15T06:13:46;0.53;;;0.30;;
14817;SDS011;7500;57.698;11.986;2024-01-15T06:16:13;0.80;;;0.60;;
14817;SDS011;7500;57.698;11.986;2024-01-15T06:18:40;0.63;;;0.50;;
14817;SDS011;7500;57.698;11.986;2024-01-15T06:21:07;2.93;;;0.50;;
14817;SDS011;7500;57.698;11.986;2024-01-15T06:23:37;0.50;;;0.30;;
14817;SDS011;7500;57.698;11.986;2024-01-15T06:26:04;0.53;;;0.30;;
14817;SDS011;7500;57.698;11.986;2024-01-15T06:28:30;0.50;;;0.20;;
14817;SDS011;7500;57.698;11.986;2024-01-15T06:30:57;1.03;;;0.37;;
14817;SDS011;7500;57.698;11.986;2024-01-15T06:33:24;0.20;;;0.20;;
14817;SDS011;7500;57.698;11.986;2024-01-15T06:35:51;0.23;;;0.23;;
14817;SDS011;7500;57.698;11.986;2024-01-15T06:38:17;1.97;;;0.70;;
14817;SDS011;7500;57.698;11.986;2024-01-15T06:40:45;0.47;;;0.30;;
14817;SDS011;7500;57.698;11.986;2024-01-15T06:43:13;1.47;;;0.40;;
14817;SDS011;7500;57.698;11.986;2024-01-15T06:45:40;1.33;;;0.30;;
14817;SDS011;7500;57.698;11.986;2024-01-15T06:48:06;0.30;;;0.30;;
14817;SDS011;7500;57.698;11.986;2024-01-15T06:50:33;1.40;;;0.40;;
14817;SDS011;7500;57.698;11.986;2024-01-15T06:53:00;1.23;;;0.50;;
14817;SDS011;7500;57.698;11.986;2024-01-15T06:55:26;0.80;;;0.50;;
14817;SDS011;7500;57.698;11.986;2024-01-15T06:57:54;1.87;;;0.40;;
14817;SDS011;7500;57.698;11.986;2024-01-15T07:00:21;1.07;;;0.30;;
14817;SDS011;7500;57.698;11.986;2024-01-15T07:02:47;2.30;;;0.60;;
14817;SDS011;7500;57.698;11.986;2024-01-15T07:05:14;0.33;;;0.17;;
14817;SDS011;7500;57.698;11.986;2024-01-15T07:07:41;0.70;;;0.27;;
14817;SDS011;7500;57.698;11.986;2024-01-15T07:10:08;0.27;;;0.20;;
14817;SDS011;7500;57.698;11.986;2024-01-15T07:12:35;1.70;;;0.40;;
14817;SDS011;7500;57.698;11.986;2024-01-15T07:15:03;1.17;;;0.50;;
14817;SDS011;7500;57.698;11.986;2024-01-15T07:17:32;1.43;;;0.70;;
14817;SDS011;7500;57.698;11.986;2024-01-15T07:19:58;0.30;;;0.30;;
14817;SDS011;7500;57.698;11.986;2024-01-15T07:22:25;2.77;;;0.30;;
14817;SDS011;7500;57.698;11.986;2024-01-15T07:24:52;0.77;;;0.37;;
14817;SDS011;7500;57.698;11.986;2024-01-15T07:27:19;1.23;;;0.30;;
14817;SDS011;7500;57.698;11.986;2024-01-15T07:29:46;1.40;;;0.30;;
14817;SDS011;7500;57.698;11.986;2024-01-15T07:32:15;0.70;;;0.60;;
14817;SDS011;7500;57.698;11.986;2024-01-15T07:34:41;0.40;;;0.30;;
14817;SDS011;7500;57.698;11.986;2024-01-15T07:37:08;0.30;;;0.30;;
14817;SDS011;7500;57.698;11.986;2024-01-15T07:39:35;0.90;;;0.47;;
14817;SDS011;7500;57.698;11.986;2024-01-15T07:42:01;0.23;;;0.20;;
14817;SDS011;7500;57.698;11.986;2024-01-15T07:44:28;2.73;;;0.50;;
14817;SDS011;7500;57.698;11.986;2024-01-15T07:46:54;0.60;;;0.20;;
14817;SDS011;7500;57.698;11.986;2024-01-15T07:49:22;2.70;;;0.60;;
14817;SDS011;7500;57.698;11.986;2024-01-15T07:51:49;0.30;;;0.20;;
14817;SDS011;7500;57.698;11.986;2024-01-15T07:54:16;0.87;;;0.50;;
14817;SDS011;7500;57.698;11.986;2024-01-15T07:56:55;0.97;;;0.33;;
14817;SDS011;7500;57.698;11.986;2024-01-15T07:59:22;1.33;;;0.23;;
14817;SDS011;7500;57.698;11.986;2024-01-15T08:01:48;1.47;;;0.27;;
14817;SDS011;7500;57.698;11.986;2024-01-15T08:04:15;0.43;;;0.37;;
14817;SDS011;7500;57.698;11.986;2024-01-15T08:06:43;2.63;;;0.60;;
14817;SDS011;7500;57.698;11.986;2024-01-15T08:09:10;4.57;;;0.47;;
14817;SDS011;7500;57.698;11.986;2024-01-15T08:11:39;1.47;;;0.47;;
14817;SDS011;7500;57.698;11.986;2024-01-15T08:14:05;0.37;;;0.27;;
14817;SDS011;7500;57.698;11.986;2024-01-15T08:16:32;1.53;;;0.40;;
14817;SDS011;7500;57.698;11.986;2024-01-15T08:18:58;1.50;;;0.20;;
14817;SDS011;7500;57.698;11.986;2024-01-15T08:21:25;2.23;;;0.40;;
14817;SDS011;7500;57.698;11.986;2024-01-15T08:23:54;1.73;;;0.47;;
14817;SDS011;7500;57.698;11.986;2024-01-15T08:26:21;1.03;;;0.50;;
14817;SDS011;7500;57.698;11.986;2024-01-15T08:28:47;2.70;;;0.60;;
14817;SDS011;7500;57.698;11.986;2024-01-15T08:31:14;3.03;;;0.70;;
14817;SDS011;7500;57.698;11.986;2024-01-15T08:33:40;1.40;;;0.33;;
14817;SDS011;7500;57.698;11.986;2024-01-15T08:36:07;1.00;;;0.40;;
14817;SDS011;7500;57.698;11.986;2024-01-15T08:38:34;1.80;;;0.53;;
14817;SDS011;7500;57.698;11.986;2024-01-15T08:41:02;1.13;;;0.30;;
14817;SDS011;7500;57.698;11.986;2024-01-15T08:43:28;2.33;;;0.50;;
14817;SDS011;7500;57.698;11.986;2024-01-15T08:45:56;3.20;;;0.37;;
14817;SDS011;7500;57.698;11.986;2024-01-15T08:48:23;3.33;;;0.63;;
14817;SDS011;7500;57.698;11.986;2024-01-15T08:50:52;1.40;;;0.40;;
14817;SDS011;7500;57.698;11.986;2024-01-15T08:53:19;1.83;;;0.43;;
14817;SDS011;7500;57.698;11.986;2024-01-15T08:55:45;2.90;;;0.53;;
14817;SDS011;7500;57.698;11.986;2024-01-15T08:58:14;0.60;;;0.30;;
14817;SDS011;7500;57.698;11.986;2024-01-15T09:00:40;0.70;;;0.40;;
14817;SDS011;7500;57.698;11.986;2024-01-15T09:03:07;0.47;;;0.30;;
14817;SDS011;7500;57.698;11.986;2024-01-15T09:05:34;2.30;;;0.60;;
14817;SDS011;7500;57.698;11.986;2024-01-15T09:08:00;0.50;;;0.20;;
14817;SDS011;7500;57.698;11.986;2024-01-15T09:10:27;1.20;;;0.40;;
14817;SDS011;7500;57.698;11.986;2024-01-15T09:12:54;1.13;;;0.40;;
14817;SDS011;7500;57.698;11.986;2024-01-15T09:15:22;0.70;;;0.30;;
14817;SDS011;7500;57.698;11.986;2024-01-15T09:17:49;0.63;;;0.40;;
14817;SDS011;7500;57.698;11.986;2024-01-15T09:20:16;0.30;;;0.30;;
14817;SDS011;7500;57.698;11.986;2024-01-15T09:22:43;3.33;;;0.50;;
14817;SDS011;7500;57.698;11.986;2024-01-15T09:25:10;0.67;;;0.40;;
14817;SDS011;7500;57.698;11.986;2024-01-15T09:27:37;1.50;;;0.60;;
14817;SDS011;7500;57.698;11.986;2024-01-15T09:30:04;4.10;;;0.80;;
14817;SDS011;7500;57.698;11.986;2024-01-15T09:32:32;2.00;;;0.50;;
14817;SDS011;7500;57.698;11.986;2024-01-15T09:34:59;0.97;;;0.50;;
14817;SDS011;7500;57.698;11.986;2024-01-15T09:37:25;1.23;;;0.60;;
14817;SDS011;7500;57.698;11.986;2024-01-15T09:39:52;2.13;;;0.67;;
14817;SDS011;7500;57.698;11.986;2024-01-15T09:42:20;0.40;;;0.40;;
14817;SDS011;7500;57.698;11.986;2024-01-15T09:44:48;0.60;;;0.30;;
14817;SDS011;7500;57.698;11.986;2024-01-15T09:47:14;0.90;;;0.70;;
14817;SDS011;7500;57.698;11.986;2024-01-15T09:49:43;0.40;;;0.30;;
14817;SDS011;7500;57.698;11.986;2024-01-15T09:52:10;2.87;;;0.30;;
14817;SDS011;7500;57.698;11.986;2024-01-15T09:54:37;1.40;;;0.30;;
14817;SDS011;7500;57.698;11.986;2024-01-15T09:57:04;5.10;;;0.67;;
14817;SDS011;7500;57.698;11.986;2024-01-15T09:59:31;2.57;;;0.50;;
14817;SDS011;7500;57.698;11.986;2024-01-15T10:01:57;1.63;;;0.40;;
14817;SDS011;7500;57.698;11.986;2024-01-15T10:04:25;0.33;;;0.33;;
14817;SDS011;7500;57.698;11.986;2024-01-15T10:06:53;0.33;;;0.20;;
14817;SDS011;7500;57.698;11.986;2024-01-15T10:09:20;0.80;;;0.30;;
14817;SDS011;7500;57.698;11.986;2024-01-15T10:11:47;1.10;;;0.40;;
14817;SDS011;7500;57.698;11.986;2024-01-15T10:14:14;2.03;;;0.60;;
14817;SDS011;7500;57.698;11.986;2024-01-15T10:16:41;1.00;;;0.53;;
14817;SDS011;7500;57.698;11.986;2024-01-15T10:19:08;1.80;;;0.40;;
14817;SDS011;7500;57.698;11.986;2024-01-15T10:21:35;1.50;;;0.40;;
14817;SDS011;7500;57.698;11.986;2024-01-15T10:24:03;1.57;;;0.37;;
14817;SDS011;7500;57.698;11.986;2024-01-15T10:26:30;1.93;;;0.47;;
14817;SDS011;7500;57.698;11.986;2024-01-15T10:28:58;1.27;;;0.50;;
14817;SDS011;7500;57.698;11.986;2024-01-15T10:31:25;0.70;;;0.40;;
14817;SDS011;7500;57.698;11.986;2024-01-15T10:33:52;4.57;;;1.40;;
14817;SDS011;7500;57.698;11.986;2024-01-15T10:36:18;2.00;;;0.50;;
14817;SDS011;7500;57.698;11.986;2024-01-15T10:38:45;2.10;;;0.40;;
14817;SDS011;7500;57.698;11.986;2024-01-15T10:41:14;1.23;;;0.67;;
14817;SDS011;7500;57.698;11.986;2024-01-15T10:43:41;0.67;;;0.37;;
14817;SDS011;7500;57.698;11.986;2024-01-15T10:46:07;1.80;;;0.30;;
14817;SDS011;7500;57.698;11.986;2024-01-15T10:48:35;1.70;;;0.40;;
14817;SDS011;7500;57.698;11.986;2024-01-15T10:51:02;1.13;;;0.40;;
14817;SDS011;7500;57.698;11.986;2024-01-15T10:53:35;0.77;;;0.27;;
14817;SDS011;7500;57.698;11.986;2024-01-15T10:56:03;1.45;;;0.75;;
14817;SDS011;7500;57.698;11.986;2024-01-15T10:58:32;0.70;;;0.30;;
14817;SDS011;7500;57.698;11.986;2024-01-15T11:01:00;0.40;;;0.30;;
14817;SDS011;7500;57.698;11.986;2024-01-15T11:03:26;0.40;;;0.30;;
14817;SDS011;7500;57.698;11.986;2024-01-15T11:05:53;0.63;;;0.20;;
14817;SDS011;7500;57.698;11.986;2024-01-15T11:08:20;0.30;;;0.27;;
14817;SDS011;7500;57.698;11.986;2024-01-15T11:10:47;4.37;;;0.47;;
14817;SDS011;7500;57.698;11.986;2024-01-15T11:13:15;1.23;;;0.50;;
14817;SDS011;7500;57.698;11.986;2024-01-15T11:15:55;0.60;;;0.30;;
14817;SDS011;7500;57.698;11.986;2024-01-15T11:18:22;0.80;;;0.30;;
14817;SDS011;7500;57.698;11.986;2024-01-15T11:23:42;1.00;;;0.27;;
14817;SDS011;7500;57.698;11.986;2024-01-15T11:28:52;0.47;;;0.30;;
14817;SDS011;7500;57.698;11.986;2024-01-15T11:31:20;0.33;;;0.30;;
14817;SDS011;7500;57.698;11.986;2024-01-15T11:33:47;2.20;;;0.50;;
14817;SDS011;7500;57.698;11.986;2024-01-15T11:36:14;0.23;;;0.20;;
14817;SDS011;7500;57.698;11.986;2024-01-15T11:38:41;0.97;;;0.47;;
14817;SDS011;7500;57.698;11.986;2024-01-15T11:41:13;1.00;;;0.30;;
14817;SDS011;7500;57.698;11.986;2024-01-15T11:43:40;2.20;;;0.30;;
14817;SDS011;7500;57.698;11.986;2024-01-15T11:46:08;0.53;;;0.23;;
14817;SDS011;7500;57.698;11.986;2024-01-15T11:48:42;2.30;;;0.20;;
14817;SDS011;7500;57.698;11.986;2024-01-15T11:51:10;0.30;;;0.30;;
14817;SDS011;7500;57.698;11.986;2024-01-15T11:53:44;0.67;;;0.40;;
14817;SDS011;7500;57.698;11.986;2024-01-15T11:56:14;0.60;;;0.40;;
14817;SDS011;7500;57.698;11.986;2024-01-15T11:58:41;1.57;;;0.50;;
14817;SDS011;7500;57.698;11.986;2024-01-15T12:01:08;0.67;;;0.30;;
14817;SDS011;7500;57.698;11.986;2024-01-15T12:03:35;0.93;;;0.37;;
14817;SDS011;7500;57.698;11.986;2024-01-15T12:06:03;3.47;;;0.70;;
14817;SDS011;7500;57.698;11.986;2024-01-15T12:08:31;0.30;;;0.30;;
14817;SDS011;7500;57.698;11.986;2024-01-15T12:10:57;1.23;;;0.37;;
14817;SDS011;7500;57.698;11.986;2024-01-15T12:13:24;0.30;;;0.23;;
14817;SDS011;7500;57.698;11.986;2024-01-15T12:15:51;2.33;;;0.43;;
14817;SDS011;7500;57.698;11.986;2024-01-15T12:18:17;1.03;;;0.33;;
14817;SDS011;7500;57.698;11.986;2024-01-15T12:20:45;1.93;;;0.43;;
14817;SDS011;7500;57.698;11.986;2024-01-15T12:23:14;1.53;;;0.43;;
14817;SDS011;7500;57.698;11.986;2024-01-15T12:25:41;2.23;;;0.40;;
14817;SDS011;7500;57.698;11.986;2024-01-15T12:28:08;1.60;;;0.47;;
14817;SDS011;7500;57.698;11.986;2024-01-15T12:30:35;1.60;;;0.43;;
14817;SDS011;7500;57.698;11.986;2024-01-15T12:33:03;0.40;;;0.30;;
14817;SDS011;7500;57.698;11.986;2024-01-15T12:35:30;1.80;;;0.50;;
14817;SDS011;7500;57.698;11.986;2024-01-15T12:37:56;1.20;;;0.37;;
14817;SDS011;7500;57.698;11.986;2024-01-15T12:40:24;0.57;;;0.43;;
14817;SDS011;7500;57.698;11.986;2024-01-15T12:42:51;0.50;;;0.30;;
14817;SDS011;7500;57.698;11.986;2024-01-15T12:45:17;0.23;;;0.23;;
14817;SDS011;7500;57.698;11.986;2024-01-15T12:47:44;0.83;;;0.33;;
14817;SDS011;7500;57.698;11.986;2024-01-15T12:50:12;0.70;;;0.40;;
14817;SDS011;7500;57.698;11.986;2024-01-15T12:52:40;1.13;;;0.50;;
14817;SDS011;7500;57.698;11.986;2024-01-15T12:55:06;1.33;;;0.30;;
14817;SDS011;7500;57.698;11.986;2024-01-15T12:57:35;0.70;;;0.33;;
14817;SDS011;7500;57.698;11.986;2024-01-15T13:00:02;0.80;;;0.53;;
14817;SDS011;7500;57.698;11.986;2024-01-15T13:02:31;0.30;;;0.23;;
14817;SDS011;7500;57.698;11.986;2024-01-15T13:04:58;1.97;;;0.33;;
14817;SDS011;7500;57.698;11.986;2024-01-15T13:07:31;0.27;;;0.27;;
14817;SDS011;7500;57.698;11.986;2024-01-15T13:09:58;0.50;;;0.37;;
14817;SDS011;7500;57.698;11.986;2024-01-15T13:12:25;0.33;;;0.20;;
14817;SDS011;7500;57.698;11.986;2024-01-15T13:14:51;0.80;;;0.60;;
14817;SDS011;7500;57.698;11.986;2024-01-15T13:17:18;0.30;;;0.30;;
14817;SDS011;7500;57.698;11.986;2024-01-15T13:19:46;0.40;;;0.20;;
14817;SDS011;7500;57.698;11.986;2024-01-15T13:22:12;0.73;;;0.50;;
14817;SDS011;7500;57.698;11.986;2024-01-15T13:24:40;0.50;;;0.30;;
14817;SDS011;7500;57.698;11.986;2024-01-15T13:27:06;1.33;;;0.57;;
14817;SDS011;7500;57.698;11.986;2024-01-15T13:29:33;0.40;;;0.30;;
14817;SDS011;7500;57.698;11.986;2024-01-15T13:32:01;1.43;;;0.40;;
14817;SDS011;7500;57.698;11.986;2024-01-15T13:34:28;0.80;;;0.50;;
14817;SDS011;7500;57.698;11.986;2024-01-15T13:36:55;0.33;;;0.23;;
14817;SDS011;7500;57.698;11.986;2024-01-15T13:39:22;2.57;;;0.30;;
14817;SDS011;7500;57.698;11.986;2024-01-15T13:41:49;1.17;;;0.30;;
14817;SDS011;7500;57.698;11.986;2024-01-15T13:44:15;2.60;;;0.70;;
14817;SDS011;7500;57.698;11.986;2024-01-15T13:46:42;0.60;;;0.40;;
14817;SDS011;7500;57.698;11.986;2024-01-15T13:49:10;0.77;;;0.40;;
14817;SDS011;7500;57.698;11.986;2024-01-15T13:51:36;2.00;;;0.50;;
14817;SDS011;7500;57.698;11.986;2024-01-15T13:54:03;0.97;;;0.33;;
14817;SDS011;7500;57.698;11.986;2024-01-15T13:56:30;1.00;;;0.27;;
14817;SDS011;7500;57.698;11.986;2024-01-15T13:58:57;0.90;;;0.80;;
14817;SDS011;7500;57.698;11.986;2024-01-15T14:01:24;3.67;;;0.60;;
14817;SDS011;7500;57.698;11.986;2024-01-15T14:03:51;0.57;;;0.30;;
14817;SDS011;7500;57.698;11.986;2024-01-15T14:06:19;0.30;;;0.30;;
14817;SDS011;7500;57.698;11.986;2024-01-15T14:08:46;0.67;;;0.30;;
14817;SDS011;7500;57.698;11.986;2024-01-15T14:11:12;2.20;;;0.97;;
14817;SDS011;7500;57.698;11.986;2024-01-15T14:13:39;1.40;;;0.40;;
14817;SDS011;7500;57.698;11.986;2024-01-15T14:16:05;0.60;;;0.33;;
14817;SDS011;7500;57.698;11.986;2024-01-15T14:18:32;0.80;;;0.40;;
14817;SDS011;7500;57.698;11.986;2024-01-15T14:20:58;0.93;;;0.40;;
14817;SDS011;7500;57.698;11.986;2024-01-15T14:23:26;0.30;;;0.30;;
14817;SDS011;7500;57.698;11.986;2024-01-15T14:25:53;0.87;;;0.33;;
14817;SDS011;7500;57.698;11.986;2024-01-15T14:28:20;0.80;;;0.30;;
14817;SDS011;7500;57.698;11.986;2024-01-15T14:30:48;0.40;;;0.20;;
14817;SDS011;7500;57.698;11.986;2024-01-15T14:33:14;0.73;;;0.23;;
14817;SDS011;7500;57.698;11.986;2024-01-15T14:35:41;0.73;;;0.50;;
14817;SDS011;7500;57.698;11.986;2024-01-15T14:38:07;0.93;;;0.50;;
14817;SDS011;7500;57.698;11.986;2024-01-15T14:40:35;1.53;;;0.40;;
14817;SDS011;7500;57.698;11.986;2024-01-15T14:43:02;0.27;;;0.20;;
14817;SDS011;7500;57.698;11.986;2024-01-15T14:45:29;0.40;;;0.20;;
14817;SDS011;7500;57.698;11.986;2024-01-15T14:47:56;1.13;;;0.40;;
14817;SDS011;7500;57.698;11.986;2024-01-15T14:50:23;0.70;;;0.40;;
14817;SDS011;7500;57.698;11.986;2024-01-15T14:52:50;1.47;;;0.40;;